sensor_id;sensor_type;location;lat;lon;timestamp;pressure;altitude;pressure_sealevel;temperature;humidity
39105;BME280;46464;51.154;13.812;2023-04-28T00:00:42;52419.78;;;-146.96;73.69
39105;BME280;46464;51.154;13.812;2023-04-28T00:03:08;52450.31;;;-146.96;73.79
39105;BME280;46464;51.154;13.812;2023-04-28T00:05:35;52464.56;;;-146.96;74.00
39105;BME280;46464;51.154;13.812;2023-04-28T00:08:01;52456.41;;;-146.96;73.70
39105;BME280;46464;51.154;13.812;2023-04-28T00:10:29;52468.63;;;-146.96;74.03
39105;BME280;46464;51.154;13.812;2023-04-28T00:12:55;52432.00;;;-146.96;74.00
39105;BME280;46464;51.154;13.812;2023-04-28T00:15:22;52488.97;;;-146.96;73.73
39105;BME280;46464;51.154;13.812;2023-04-28T00:17:48;52462.53;;;-146.96;73.44
39105;BME280;46464;51.154;13.812;2023-04-28T00:20:15;52446.25;;;-146.96;73.79
39105;BME280;46464;51.154;13.812;2023-04-28T00:22:41;52448.28;;;-146.96;73.86
39105;BME280;46464;51.154;13.812;2023-04-28T00:25:08;52470.66;;;-146.96;74.16
39105;BME280;46464;51.154;13.812;2023-04-28T00:27:35;52464.56;;;-146.96;74.09
39105;BME280;46464;51.154;13.812;2023-04-28T00:30:01;52458.44;;;-146.96;74.27
39105;BME280;46464;51.154;13.812;2023-04-28T00:32:28;52454.38;;;-146.96;74.13
39105;BME280;46464;51.154;13.812;2023-04-28T00:34:55;52442.19;;;-146.96;73.92
39105;BME280;46464;51.154;13.812;2023-04-28T00:37:22;52450.31;;;-146.96;73.80
39105;BME280;46464;51.154;13.812;2023-04-28T00:39:53;52466.59;;;-146.96;73.83
39105;BME280;46464;51.154;13.812;2023-04-28T00:42:19;52491.00;;;-146.96;73.89
39105;BME280;46464;51.154;13.812;2023-04-28T00:44:45;52462.53;;;-146.96;73.72
39105;BME280;46464;51.154;13.812;2023-04-28T00:47:12;52460.50;;;-146.96;74.24
39105;BME280;46464;51.154;13.812;2023-04-28T00:49:38;52476.75;;;-146.96;74.35
39105;BME280;46464;51.154;13.812;2023-04-28T00:52:05;52448.28;;;-146.96;74.58
39105;BME280;46464;51.154;13.812;2023-04-28T00:54:32;52484.91;;;-146.96;74.71
39105;BME280;46464;51.154;13.812;2023-04-28T00:57:00;52454.38;;;-146.96;74.99
39105;BME280;46464;51.154;13.812;2023-04-28T00:59:28;52450.31;;;-146.96;74.80
39105;BME280;46464;51.154;13.812;2023-04-28T01:01:55;52484.91;;;-146.96;74.78
39105;BME280;46464;51.154;13.812;2023-04-28T01:04:22;52484.91;;;-146.96;74.69
39105;BME280;46464;51.154;13.812;2023-04-28T01:06:49;52456.41;;;-146.96;74.60
39105;BME280;46464;51.154;13.812;2023-04-28T01:09:17;52450.31;;;-146.96;74.45
39105;BME280;46464;51.154;13.812;2023-04-28T01:11:43;52452.34;;;-146.96;74.58
39105;BME280;46464;51.154;13.812;2023-04-28T01:14:09;52464.56;;;-146.96;74.56
39105;BME280;46464;51.154;13.812;2023-04-28T01:16:36;52440.13;;;-146.96;74.87
39105;BME280;46464;51.154;13.812;2023-04-28T01:19:05;52470.66;;;-146.96;74.76
39105;BME280;46464;51.154;13.812;2023-04-28T01:21:33;52464.56;;;-146.96;74.85
39105;BME280;46464;51.154;13.812;2023-04-28T01:24:00;52476.75;;;-146.96;74.90
39105;BME280;46464;51.154;13.812;2023-04-28T01:26:26;52468.63;;;-146.96;75.02
39105;BME280;46464;51.154;13.812;2023-04-28T01:28:53;52450.31;;;-146.96;74.76
39105;BME280;46464;51.154;13.812;2023-04-28T01:31:19;52476.75;;;-146.96;74.75
39105;BME280;46464;51.154;13.812;2023-04-28T01:33:46;52472.69;;;-146.96;74.35
39105;BME280;46464;51.154;13.812;2023-04-28T01:36:12;52470.66;;;-146.96;74.30
39105;BME280;46464;51.154;13.812;2023-04-28T01:38:38;52442.19;;;-146.96;74.34
39105;BME280;46464;51.154;13.812;2023-04-28T01:41:05;52493.03;;;-146.96;74.39
39105;BME280;46464;51.154;13.812;2023-04-28T01:43:31;52470.66;;;-146.96;74.50
39105;BME280;46464;51.154;13.812;2023-04-28T01:45:57;52480.84;;;-146.96;74.58
39105;BME280;46464;51.154;13.812;2023-04-28T01:48:24;52464.56;;;-146.96;74.44
39105;BME280;46464;51.154;13.812;2023-04-28T01:50:50;52513.41;;;-146.96;74.47
39105;BME280;46464;51.154;13.812;2023-04-28T01:53:16;52468.63;;;-146.96;74.23
39105;BME280;46464;51.154;13.812;2023-04-28T01:55:45;52497.13;;;-146.96;74.64
39105;BME280;46464;51.154;13.812;2023-04-28T01:58:12;52458.44;;;-146.96;74.38
39105;BME280;46464;51.154;13.812;2023-04-28T02:00:39;52446.25;;;-146.96;74.69
39105;BME280;46464;51.154;13.812;2023-04-28T02:03:05;52429.97;;;-146.96;74.68
39105;BME280;46464;51.154;13.812;2023-04-28T02:05:32;52464.56;;;-146.96;74.51
39105;BME280;46464;51.154;13.812;2023-04-28T02:07:58;52466.59;;;-146.96;74.24
39105;BME280;46464;51.154;13.812;2023-04-28T02:10:24;52482.88;;;-146.96;74.83
39105;BME280;46464;51.154;13.812;2023-04-28T02:12:51;52438.09;;;-146.96;74.79
39105;BME280;46464;51.154;13.812;2023-04-28T02:15:17;52509.31;;;-146.96;74.71
39105;BME280;46464;51.154;13.812;2023-04-28T02:17:44;52432.00;;;-146.96;74.73
39105;BME280;46464;51.154;13.812;2023-04-28T02:20:11;52472.69;;;-146.96;73.57
39105;BME280;46464;51.154;13.812;2023-04-28T02:22:39;52458.44;;;-146.96;73.60
39105;BME280;46464;51.154;13.812;2023-04-28T02:25:06;52474.72;;;-146.96;73.49
39105;BME280;46464;51.154;13.812;2023-04-28T02:27:35;52452.34;;;-146.96;73.57
39105;BME280;46464;51.154;13.812;2023-04-28T02:30:02;52527.63;;;-146.96;74.18
39105;BME280;46464;51.154;13.812;2023-04-28T02:32:29;52462.53;;;-146.96;74.14
39105;BME280;46464;51.154;13.812;2023-04-28T02:34:55;52442.19;;;-146.96;74.38
39105;BME280;46464;51.154;13.812;2023-04-28T02:37:22;52472.69;;;-146.96;74.57
39105;BME280;46464;51.154;13.812;2023-04-28T02:39:48;52448.28;;;-146.96;74.76
39105;BME280;46464;51.154;13.812;2023-04-28T02:42:15;52476.75;;;-146.96;75.00
39105;BME280;46464;51.154;13.812;2023-04-28T02:44:41;52474.72;;;-146.96;74.92
39105;BME280;46464;51.154;13.812;2023-04-28T02:47:07;52421.81;;;-146.96;75.03
39105;BME280;46464;51.154;13.812;2023-04-28T02:49:34;52456.41;;;-146.96;75.33
39105;BME280;46464;51.154;13.812;2023-04-28T02:52:01;52464.56;;;-146.96;74.97
39105;BME280;46464;51.154;13.812;2023-04-28T02:54:27;52464.56;;;-146.96;75.25
39105;BME280;46464;51.154;13.812;2023-04-28T02:56:54;52448.28;;;-146.96;75.38
39105;BME280;46464;51.154;13.812;2023-04-28T02:59:21;52470.66;;;-146.96;75.53
39105;BME280;46464;51.154;13.812;2023-04-28T03:01:48;52460.50;;;-146.96;75.31
39105;BME280;46464;51.154;13.812;2023-04-28T03:04:14;52460.50;;;-146.96;75.33
39105;BME280;46464;51.154;13.812;2023-04-28T03:06:41;52478.81;;;-146.96;75.50
39105;BME280;46464;51.154;13.812;2023-04-28T03:09:08;52458.44;;;-146.96;75.38
39105;BME280;46464;51.154;13.812;2023-04-28T03:11:35;52454.38;;;-146.96;73.85
39105;BME280;46464;51.154;13.812;2023-04-28T03:14:01;52452.34;;;-146.96;72.77
39105;BME280;46464;51.154;13.812;2023-04-28T03:16:27;52456.41;;;-146.96;72.39
39105;BME280;46464;51.154;13.812;2023-04-28T03:18:54;52468.63;;;-146.96;72.17
39105;BME280;46464;51.154;13.812;2023-04-28T03:21:20;52440.13;;;-146.96;72.42
39105;BME280;46464;51.154;13.812;2023-04-28T03:23:47;52466.59;;;-146.96;72.81
39105;BME280;46464;51.154;13.812;2023-04-28T03:26:13;52432.00;;;-146.96;72.14
39105;BME280;46464;51.154;13.812;2023-04-28T03:28:39;52436.06;;;-146.96;71.77
39105;BME280;46464;51.154;13.812;2023-04-28T03:31:06;52429.97;;;-146.96;72.09
39105;BME280;46464;51.154;13.812;2023-04-28T03:33:32;52454.38;;;-146.96;72.25
39105;BME280;46464;51.154;13.812;2023-04-28T03:35:59;52452.34;;;-146.96;72.41
39105;BME280;46464;51.154;13.812;2023-04-28T03:38:25;52442.19;;;-146.96;72.26
39105;BME280;46464;51.154;13.812;2023-04-28T03:40:52;52450.31;;;-146.96;72.06
39105;BME280;46464;51.154;13.812;2023-04-28T03:43:18;52425.91;;;-146.96;71.85
39105;BME280;46464;51.154;13.812;2023-04-28T03:45:45;52480.84;;;-146.96;71.57
39105;BME280;46464;51.154;13.812;2023-04-28T03:48:12;52476.75;;;-146.96;71.10
39105;BME280;46464;51.154;13.812;2023-04-28T03:50:38;52434.03;;;-146.96;71.28
39105;BME280;46464;51.154;13.812;2023-04-28T03:53:06;52452.34;;;-146.96;71.42
39105;BME280;46464;51.154;13.812;2023-04-28T03:55:32;52446.25;;;-146.96;71.47
39105;BME280;46464;51.154;13.812;2023-04-28T03:57:58;52427.94;;;-146.96;71.67
39105;BME280;46464;51.154;13.812;2023-04-28T04:00:25;52450.31;;;-146.96;71.80
39105;BME280;46464;51.154;13.812;2023-04-28T04:02:51;52468.63;;;-146.96;71.84
39105;BME280;46464;51.154;13.812;2023-04-28T04:05:18;52450.31;;;-146.96;72.09
39105;BME280;46464;51.154;13.812;2023-04-28T04:07:45;52429.97;;;-146.96;72.22
39105;BME280;46464;51.154;13.812;2023-04-28T04:10:11;52476.75;;;-146.96;72.27
39105;BME280;46464;51.154;13.812;2023-04-28T04:12:38;52432.00;;;-146.96;72.33
39105;BME280;46464;51.154;13.812;2023-04-28T04:15:04;52436.06;;;-146.96;72.35
39105;BME280;46464;51.154;13.812;2023-04-28T04:17:31;52440.13;;;-146.96;72.33
39105;BME280;46464;51.154;13.812;2023-04-28T04:19:57;52436.06;;;-146.96;71.84
39105;BME280;46464;51.154;13.812;2023-04-28T04:22:24;52460.50;;;-146.96;71.57
39105;BME280;46464;51.154;13.812;2023-04-28T04:24:50;52460.50;;;-146.96;71.31
39105;BME280;46464;51.154;13.812;2023-04-28T04:27:16;52438.09;;;-146.96;71.32
39105;BME280;46464;51.154;13.812;2023-04-28T04:29:44;52405.56;;;-146.96;71.42
39105;BME280;46464;51.154;13.812;2023-04-28T04:32:10;52413.69;;;-146.96;71.39
39105;BME280;46464;51.154;13.812;2023-04-28T04:34:38;52442.19;;;-146.96;71.02
39105;BME280;46464;51.154;13.812;2023-04-28T04:37:04;52458.44;;;-146.96;70.70
39105;BME280;46464;51.154;13.812;2023-04-28T04:39:31;52432.00;;;-146.96;70.64
39105;BME280;46464;51.154;13.812;2023-04-28T04:41:57;52425.91;;;-146.96;70.09
39105;BME280;46464;51.154;13.812;2023-04-28T04:44:23;52405.56;;;-146.96;70.43
39105;BME280;46464;51.154;13.812;2023-04-28T04:46:50;52395.38;;;-146.96;70.02
39105;BME280;46464;51.154;13.812;2023-04-28T04:49:17;52358.75;;;-146.96;69.92
39105;BME280;46464;51.154;13.812;2023-04-28T04:51:43;52415.72;;;-146.96;69.44
39105;BME280;46464;51.154;13.812;2023-04-28T04:54:10;52409.63;;;-146.96;69.01
39105;BME280;46464;51.154;13.812;2023-04-28T04:56:36;52399.44;;;-146.96;68.75
39105;BME280;46464;51.154;13.812;2023-04-28T04:59:03;52338.41;;;-146.96;68.04
39105;BME280;46464;51.154;13.812;2023-04-28T05:01:29;52419.78;;;-146.96;68.08
39105;BME280;46464;51.154;13.812;2023-04-28T05:03:56;52387.22;;;-146.96;67.89
39105;BME280;46464;51.154;13.812;2023-04-28T05:06:22;52358.75;;;-146.96;67.69
39105;BME280;46464;51.154;13.812;2023-04-28T05:08:49;52375.03;;;-146.96;67.74
39105;BME280;46464;51.154;13.812;2023-04-28T05:11:15;52375.03;;;-146.96;67.56
39105;BME280;46464;51.154;13.812;2023-04-28T05:13:42;52364.84;;;-146.96;67.27
39105;BME280;46464;51.154;13.812;2023-04-28T05:16:08;52379.09;;;-146.96;66.67
39105;BME280;46464;51.154;13.812;2023-04-28T05:18:35;52346.53;;;-146.96;66.39
39105;BME280;46464;51.154;13.812;2023-04-28T05:21:01;52350.59;;;-146.96;66.40
39105;BME280;46464;51.154;13.812;2023-04-28T05:23:27;52316.03;;;-146.96;65.67
39105;BME280;46464;51.154;13.812;2023-04-28T05:25:54;52352.66;;;-146.96;65.10
39105;BME280;46464;51.154;13.812;2023-04-28T05:28:20;52336.38;;;-146.96;65.02
39105;BME280;46464;51.154;13.812;2023-04-28T05:30:47;52350.59;;;-146.96;65.12
39105;BME280;46464;51.154;13.812;2023-04-28T05:33:14;52328.22;;;-146.96;64.64
39105;BME280;46464;51.154;13.812;2023-04-28T05:35:40;52334.34;;;-146.96;64.23
39105;BME280;46464;51.154;13.812;2023-04-28T05:38:06;52313.97;;;-146.96;64.28
39105;BME280;46464;51.154;13.812;2023-04-28T05:40:33;52299.75;;;-146.96;63.88
39105;BME280;46464;51.154;13.812;2023-04-28T05:42:59;52322.13;;;-146.96;63.44
39105;BME280;46464;51.154;13.812;2023-04-28T05:45:26;52316.03;;;-146.96;63.33
39105;BME280;46464;51.154;13.812;2023-04-28T05:47:52;52301.78;;;-146.96;62.83
39105;BME280;46464;51.154;13.812;2023-04-28T05:50:19;52283.47;;;-146.96;62.38
39105;BME280;46464;51.154;13.812;2023-04-28T05:52:46;52297.72;;;-146.96;61.91
39105;BME280;46464;51.154;13.812;2023-04-28T05:55:12;52295.66;;;-146.96;61.93
39105;BME280;46464;51.154;13.812;2023-04-28T05:57:38;52261.09;;;-146.96;61.85
39105;BME280;46464;51.154;13.812;2023-04-28T06:00:17;52297.72;;;-146.96;61.45
39105;BME280;46464;51.154;13.812;2023-04-28T06:02:44;52283.47;;;-146.96;60.04
39105;BME280;46464;51.154;13.812;2023-04-28T06:05:11;52305.84;;;-146.96;60.32
39105;BME280;46464;51.154;13.812;2023-04-28T06:07:37;52267.19;;;-146.96;60.22
39105;BME280;46464;51.154;13.812;2023-04-28T06:10:04;52250.91;;;-146.96;60.11
39105;BME280;46464;51.154;13.812;2023-04-28T06:12:31;52214.28;;;-146.96;59.80
39105;BME280;46464;51.154;13.812;2023-04-28T06:14:57;52250.91;;;-146.96;59.83
39105;BME280;46464;51.154;13.812;2023-04-28T06:17:24;52318.06;;;-146.96;59.44
39105;BME280;46464;51.154;13.812;2023-04-28T06:19:50;52236.66;;;-146.96;59.13
39105;BME280;46464;51.154;13.812;2023-04-28T06:22:19;52254.97;;;-146.96;57.61
39105;BME280;46464;51.154;13.812;2023-04-28T06:24:46;52212.25;;;-146.96;57.23
39105;BME280;46464;51.154;13.812;2023-04-28T06:27:13;52198.00;;;-146.96;56.03
39105;BME280;46464;51.154;13.812;2023-04-28T06:29:39;52165.44;;;-146.96;54.34
39105;BME280;46464;51.154;13.812;2023-04-28T06:32:05;52165.44;;;-146.96;52.49
39105;BME280;46464;51.154;13.812;2023-04-28T06:34:32;52114.59;;;-146.96;51.08
39105;BME280;46464;51.154;13.812;2023-04-28T06:36:59;52098.31;;;-146.96;50.15
39105;BME280;46464;51.154;13.812;2023-04-28T06:39:25;52045.41;;;-146.96;48.97
39105;BME280;46464;51.154;13.812;2023-04-28T06:41:52;52047.44;;;-146.96;47.39
39105;BME280;46464;51.154;13.812;2023-04-28T06:44:19;52065.75;;;-146.96;48.36
39105;BME280;46464;51.154;13.812;2023-04-28T06:46:45;52106.44;;;-146.96;49.10
39105;BME280;46464;51.154;13.812;2023-04-28T06:49:11;52092.22;;;-146.96;49.61
39105;BME280;46464;51.154;13.812;2023-04-28T06:51:38;52114.59;;;-146.96;50.15
39105;BME280;46464;51.154;13.812;2023-04-28T06:54:04;52126.78;;;-146.96;50.55
39105;BME280;46464;51.154;13.812;2023-04-28T06:56:30;52126.78;;;-146.96;50.21
39105;BME280;46464;51.154;13.812;2023-04-28T06:58:57;52130.88;;;-146.96;50.64
39105;BME280;46464;51.154;13.812;2023-04-28T07:01:24;52118.66;;;-146.96;50.55
39105;BME280;46464;51.154;13.812;2023-04-28T07:03:50;52092.22;;;-146.96;49.13
39105;BME280;46464;51.154;13.812;2023-04-28T07:06:17;52073.91;;;-146.96;48.47
39105;BME280;46464;51.154;13.812;2023-04-28T07:08:43;52069.81;;;-146.96;46.53
39105;BME280;46464;51.154;13.812;2023-04-28T07:11:10;52055.59;;;-146.96;45.74
39105;BME280;46464;51.154;13.812;2023-04-28T07:13:36;52053.53;;;-146.96;45.86
39105;BME280;46464;51.154;13.812;2023-04-28T07:16:03;52039.31;;;-146.96;45.48
39105;BME280;46464;51.154;13.812;2023-04-28T07:18:29;52041.34;;;-146.96;45.13
39105;BME280;46464;51.154;13.812;2023-04-28T07:20:56;52010.81;;;-146.96;45.43
39105;BME280;46464;51.154;13.812;2023-04-28T07:23:22;52041.34;;;-146.96;45.56
39105;BME280;46464;51.154;13.812;2023-04-28T07:25:49;52057.63;;;-146.96;46.00
39105;BME280;46464;51.154;13.812;2023-04-28T07:28:15;52016.94;;;-146.96;45.09
39105;BME280;46464;51.154;13.812;2023-04-28T07:30:42;52059.66;;;-146.96;45.35
39105;BME280;46464;51.154;13.812;2023-04-28T07:33:08;52016.94;;;-146.96;45.58
39105;BME280;46464;51.154;13.812;2023-04-28T07:35:35;52039.31;;;-146.96;45.86
39105;BME280;46464;51.154;13.812;2023-04-28T07:38:01;52037.28;;;-146.96;45.81
39105;BME280;46464;51.154;13.812;2023-04-28T07:40:28;52075.94;;;-146.96;46.45
39105;BME280;46464;51.154;13.812;2023-04-28T07:42:54;52037.28;;;-146.96;46.77
39105;BME280;46464;51.154;13.812;2023-04-28T07:45:20;52069.81;;;-146.96;47.18
39105;BME280;46464;51.154;13.812;2023-04-28T07:47:47;52021.00;;;-146.96;47.06
39105;BME280;46464;51.154;13.812;2023-04-28T07:50:13;52053.53;;;-146.96;47.39
39105;BME280;46464;51.154;13.812;2023-04-28T07:52:41;52035.25;;;-146.96;46.97
39105;BME280;46464;51.154;13.812;2023-04-28T07:55:07;52069.81;;;-146.96;48.22
39105;BME280;46464;51.154;13.812;2023-04-28T07:57:34;52065.75;;;-146.96;47.29
39105;BME280;46464;51.154;13.812;2023-04-28T08:00:01;52029.13;;;-146.96;47.28
39105;BME280;46464;51.154;13.812;2023-04-28T08:02:27;52027.09;;;-146.96;47.67
39105;BME280;46464;51.154;13.812;2023-04-28T08:04:54;52043.38;;;-146.96;46.67
39105;BME280;46464;51.154;13.812;2023-04-28T08:07:20;52073.91;;;-146.96;46.76
39105;BME280;46464;51.154;13.812;2023-04-28T08:09:47;52041.34;;;-146.96;47.19
39105;BME280;46464;51.154;13.812;2023-04-28T08:12:14;52014.88;;;-146.96;46.83
39105;BME280;46464;51.154;13.812;2023-04-28T08:14:40;51994.53;;;-146.96;47.11
39105;BME280;46464;51.154;13.812;2023-04-28T08:17:07;52004.72;;;-146.96;46.51
39105;BME280;46464;51.154;13.812;2023-04-28T08:19:33;51988.44;;;-146.96;45.81
39105;BME280;46464;51.154;13.812;2023-04-28T08:22:00;51998.63;;;-146.96;45.08
39105;BME280;46464;51.154;13.812;2023-04-28T08:24:30;51990.47;;;-146.96;45.21
39105;BME280;46464;51.154;13.812;2023-04-28T08:27:00;51962.00;;;-146.96;45.21
39105;BME280;46464;51.154;13.812;2023-04-28T08:29:28;51980.31;;;-146.96;45.48
39105;BME280;46464;51.154;13.812;2023-04-28T08:31:55;51955.88;;;-146.96;45.04
39105;BME280;46464;51.154;13.812;2023-04-28T08:34:22;51953.84;;;-146.96;45.64
39105;BME280;46464;51.154;13.812;2023-04-28T08:36:48;51955.88;;;-146.96;45.84
39105;BME280;46464;51.154;13.812;2023-04-28T08:39:15;51941.66;;;-146.96;44.63
39105;BME280;46464;51.154;13.812;2023-04-28T08:41:41;51974.19;;;-146.96;44.44
39105;BME280;46464;51.154;13.812;2023-04-28T08:44:08;51935.53;;;-146.96;44.23
39105;BME280;46464;51.154;13.812;2023-04-28T08:46:35;51935.53;;;-146.96;44.38
39105;BME280;46464;51.154;13.812;2023-04-28T08:49:03;51959.97;;;-146.96;44.04
39105;BME280;46464;51.154;13.812;2023-04-28T08:51:34;51951.81;;;-146.96;43.75
39105;BME280;46464;51.154;13.812;2023-04-28T08:54:07;51964.03;;;-146.96;44.88
39105;BME280;46464;51.154;13.812;2023-04-28T08:56:36;51955.88;;;-146.96;45.09
39105;BME280;46464;51.154;13.812;2023-04-28T08:59:04;51974.19;;;-146.96;44.99
39105;BME280;46464;51.154;13.812;2023-04-28T09:01:30;51994.53;;;-146.96;44.42
39105;BME280;46464;51.154;13.812;2023-04-28T09:03:59;51955.88;;;-146.96;45.15
39105;BME280;46464;51.154;13.812;2023-04-28T09:06:26;51949.78;;;-146.96;45.93
39105;BME280;46464;51.154;13.812;2023-04-28T09:08:53;51959.97;;;-146.96;46.23
39105;BME280;46464;51.154;13.812;2023-04-28T09:11:19;51921.31;;;-146.96;44.25
39105;BME280;46464;51.154;13.812;2023-04-28T09:13:46;51933.50;;;-146.96;44.67
39105;BME280;46464;51.154;13.812;2023-04-28T09:16:12;51909.09;;;-146.96;44.14
39105;BME280;46464;51.154;13.812;2023-04-28T09:18:39;51894.84;;;-146.96;43.62
39105;BME280;46464;51.154;13.812;2023-04-28T09:21:07;51937.56;;;-146.96;43.44
39105;BME280;46464;51.154;13.812;2023-04-28T09:23:34;51913.16;;;-146.96;43.33
39105;BME280;46464;51.154;13.812;2023-04-28T09:26:11;51939.63;;;-146.96;44.08
39105;BME280;46464;51.154;13.812;2023-04-28T09:28:37;51927.41;;;-146.96;44.50
39105;BME280;46464;51.154;13.812;2023-04-28T09:31:04;51909.09;;;-146.96;44.58
39105;BME280;46464;51.154;13.812;2023-04-28T09:33:30;51923.34;;;-146.96;44.64
39105;BME280;46464;51.154;13.812;2023-04-28T09:35:57;51921.31;;;-146.96;43.84
39105;BME280;46464;51.154;13.812;2023-04-28T09:38:23;51923.34;;;-146.96;43.49
39105;BME280;46464;51.154;13.812;2023-04-28T09:45:52;51846.03;;;-146.96;43.77
39105;BME280;46464;51.154;13.812;2023-04-28T09:48:25;51905.03;;;-146.96;44.16
39105;BME280;46464;51.154;13.812;2023-04-28T09:50:52;51884.69;;;-146.96;43.21
39105;BME280;46464;51.154;13.812;2023-04-28T09:53:21;51941.66;;;-146.96;43.47
39105;BME280;46464;51.154;13.812;2023-04-28T09:55:47;51886.72;;;-146.96;44.17
39105;BME280;46464;51.154;13.812;2023-04-28T09:58:15;51903.00;;;-146.96;44.36
39105;BME280;46464;51.154;13.812;2023-04-28T10:00:42;51917.22;;;-146.96;44.59
39105;BME280;46464;51.154;13.812;2023-04-28T10:03:09;51911.13;;;-146.96;44.57
39105;BME280;46464;51.154;13.812;2023-04-28T10:05:36;51953.84;;;-146.96;43.97
39105;BME280;46464;51.154;13.812;2023-04-28T10:08:05;51917.22;;;-146.96;43.35
39105;BME280;46464;51.154;13.812;2023-04-28T10:10:32;51935.53;;;-146.96;43.62
39105;BME280;46464;51.154;13.812;2023-04-28T10:12:59;51927.41;;;-146.96;42.99
39105;BME280;46464;51.154;13.812;2023-04-28T10:15:26;51896.88;;;-146.96;43.47
39105;BME280;46464;51.154;13.812;2023-04-28T10:17:53;51935.53;;;-146.96;43.96
39105;BME280;46464;51.154;13.812;2023-04-28T10:20:20;51941.66;;;-146.96;44.21
39105;BME280;46464;51.154;13.812;2023-04-28T10:25:34;51972.16;;;-146.96;45.25
39105;BME280;46464;51.154;13.812;2023-04-28T10:28:05;51943.69;;;-146.96;44.66
39105;BME280;46464;51.154;13.812;2023-04-28T10:30:32;51949.78;;;-146.96;44.13
39105;BME280;46464;51.154;13.812;2023-04-28T10:38:01;51955.88;;;-146.96;45.70
39105;BME280;46464;51.154;13.812;2023-04-28T10:43:02;51925.38;;;-146.96;45.10
39105;BME280;46464;51.154;13.812;2023-04-28T10:48:14;51937.56;;;-146.96;45.77
39105;BME280;46464;51.154;13.812;2023-04-28T10:51:20;51966.06;;;-146.96;46.38
39105;BME280;46464;51.154;13.812;2023-04-28T10:56:25;51957.91;;;-146.96;47.54
39105;BME280;46464;51.154;13.812;2023-04-28T10:58:55;51957.91;;;-146.96;46.29
39105;BME280;46464;51.154;13.812;2023-04-28T11:01:29;51959.97;;;-146.96;48.04
39105;BME280;46464;51.154;13.812;2023-04-28T11:04:07;51964.03;;;-146.96;51.38
39105;BME280;46464;51.154;13.812;2023-04-28T11:06:41;51992.50;;;-146.96;54.08
39105;BME280;46464;51.154;13.812;2023-04-28T11:11:35;51974.19;;;-146.96;58.07
39105;BME280;46464;51.154;13.812;2023-04-28T11:16:56;52029.13;;;-146.96;61.64
39105;BME280;46464;51.154;13.812;2023-04-28T11:19:25;52035.25;;;-146.96;63.49
39105;BME280;46464;51.154;13.812;2023-04-28T11:21:54;52047.44;;;-146.96;63.91
39105;BME280;46464;51.154;13.812;2023-04-28T11:24:21;52045.41;;;-146.96;65.24
39105;BME280;46464;51.154;13.812;2023-04-28T11:26:48;52082.03;;;-146.96;66.79
39105;BME280;46464;51.154;13.812;2023-04-28T11:29:14;52041.34;;;-146.96;68.11
39105;BME280;46464;51.154;13.812;2023-04-28T11:31:47;52080.00;;;-146.96;67.44
39105;BME280;46464;51.154;13.812;2023-04-28T11:34:17;52051.50;;;-146.96;68.18
39105;BME280;46464;51.154;13.812;2023-04-28T11:36:44;52039.31;;;-146.96;68.36
39105;BME280;46464;51.154;13.812;2023-04-28T11:39:11;52075.94;;;-146.96;69.17
39105;BME280;46464;51.154;13.812;2023-04-28T11:41:39;52059.66;;;-146.96;67.49
39105;BME280;46464;51.154;13.812;2023-04-28T11:44:09;52063.72;;;-146.96;68.16
39105;BME280;46464;51.154;13.812;2023-04-28T11:46:43;52053.53;;;-146.96;67.24
39105;BME280;46464;51.154;13.812;2023-04-28T11:49:09;52053.53;;;-146.96;69.68
39105;BME280;46464;51.154;13.812;2023-04-28T11:51:36;52053.53;;;-146.96;67.69
39105;BME280;46464;51.154;13.812;2023-04-28T11:54:04;52033.19;;;-146.96;68.30
39105;BME280;46464;51.154;13.812;2023-04-28T11:56:39;52023.03;;;-146.96;66.96
39105;BME280;46464;51.154;13.812;2023-04-28T11:59:07;52029.13;;;-146.96;66.70
39105;BME280;46464;51.154;13.812;2023-04-28T12:01:34;52023.03;;;-146.96;66.33
39105;BME280;46464;51.154;13.812;2023-04-28T12:04:09;52051.50;;;-146.96;66.46
39105;BME280;46464;51.154;13.812;2023-04-28T12:06:37;52037.28;;;-146.96;67.29
39105;BME280;46464;51.154;13.812;2023-04-28T12:09:16;52047.44;;;-146.96;67.04
39105;BME280;46464;51.154;13.812;2023-04-28T12:11:56;52002.69;;;-146.96;66.11
39105;BME280;46464;51.154;13.812;2023-04-28T12:14:23;52018.97;;;-146.96;65.21
39105;BME280;46464;51.154;13.812;2023-04-28T12:16:50;52025.06;;;-146.96;64.62
39105;BME280;46464;51.154;13.812;2023-04-28T12:19:16;52035.25;;;-146.96;66.20
39105;BME280;46464;51.154;13.812;2023-04-28T12:21:43;52033.19;;;-146.96;64.83
39105;BME280;46464;51.154;13.812;2023-04-28T12:24:23;52012.84;;;-146.96;64.64
39105;BME280;46464;51.154;13.812;2023-04-28T12:26:51;52027.09;;;-146.96;63.86
39105;BME280;46464;51.154;13.812;2023-04-28T12:29:37;51982.34;;;-146.96;62.97
39105;BME280;46464;51.154;13.812;2023-04-28T12:32:05;52031.16;;;-146.96;61.40
39105;BME280;46464;51.154;13.812;2023-04-28T12:34:31;51984.38;;;-146.96;61.36
39105;BME280;46464;51.154;13.812;2023-04-28T12:37:01;51976.22;;;-146.96;59.89
39105;BME280;46464;51.154;13.812;2023-04-28T12:39:28;51982.34;;;-146.96;60.74
39105;BME280;46464;51.154;13.812;2023-04-28T12:41:55;51996.59;;;-146.96;59.64
39105;BME280;46464;51.154;13.812;2023-04-28T12:44:24;51998.63;;;-146.96;58.88
39105;BME280;46464;51.154;13.812;2023-04-28T12:46:53;52031.16;;;-146.96;60.90
39105;BME280;46464;51.154;13.812;2023-04-28T12:49:20;51996.59;;;-146.96;60.80
39105;BME280;46464;51.154;13.812;2023-04-28T12:51:46;51970.13;;;-146.96;58.77
39105;BME280;46464;51.154;13.812;2023-04-28T12:54:13;51959.97;;;-146.96;57.19
39105;BME280;46464;51.154;13.812;2023-04-28T12:56:39;51959.97;;;-146.96;56.77